sensor_id;sensor_type;location;lat;lon;timestamp;P1;durP1;ratioP1;P2;durP2;ratioP2
23129;SDS011;11734;51.046;13.778;2023-05-07T00:00:24;10.40;;;7.17;;
23129;SDS011;11734;51.046;13.778;2023-05-07T00:02:52;10.53;;;8.20;;
23129;SDS011;11734;51.046;13.778;2023-05-07T00:05:19;10.50;;;7.33;;
23129;SDS011;11734;51.046;13.778;2023-05-07T00:07:47;10.80;;;7.50;;
23129;SDS011;11734;51.046;13.778;2023-05-07T00:10:14;10.13;;;7.30;;
23129;SDS011;11734;51.046;13.778;2023-05-07T00:12:41;10.33;;;7.53;;
23129;SDS011;11734;51.046;13.778;2023-05-07T00:15:09;10.87;;;7.23;;
23129;SDS011;11734;51.046;13.778;2023-05-07T00:17:37;9.20;;;7.33;;
23129;SDS011;11734;51.046;13.778;2023-05-07T00:20:04;10.70;;;7.33;;
23129;SDS011;11734;51.046;13.778;2023-05-07T00:22:32;11.50;;;8.53;;
23129;SDS011;11734;51.046;13.778;2023-05-07T00:24:59;11.73;;;8.60;;
23129;SDS011;11734;51.046;13.778;2023-05-07T00:27:26;10.47;;;7.57;;
23129;SDS011;11734;51.046;13.778;2023-05-07T00:29:53;11.27;;;7.93;;
23129;SDS011;11734;51.046;13.778;2023-05-07T00:32:21;10.87;;;7.73;;
23129;SDS011;11734;51.046;13.778;2023-05-07T00:34:48;11.43;;;8.30;;
23129;SDS011;11734;51.046;13.778;2023-05-07T00:37:17;11.77;;;7.97;;
23129;SDS011;11734;51.046;13.778;2023-05-07T00:39:44;12.97;;;8.97;;
23129;SDS011;11734;51.046;13.778;2023-05-07T00:42:11;11.07;;;8.43;;
23129;SDS011;11734;51.046;13.778;2023-05-07T00:44:38;11.17;;;8.30;;
23129;SDS011;11734;51.046;13.778;2023-05-07T00:47:05;11.90;;;8.20;;
23129;SDS011;11734;51.046;13.778;2023-05-07T00:49:41;14.03;;;9.70;;
23129;SDS011;11734;51.046;13.778;2023-05-07T00:52:13;13.33;;;9.00;;
23129;SDS011;11734;51.046;13.778;2023-05-07T00:54:41;12.63;;;9.83;;
23129;SDS011;11734;51.046;13.778;2023-05-07T00:57:09;11.73;;;8.93;;
23129;SDS011;11734;51.046;13.778;2023-05-07T00:59:37;13.67;;;9.13;;
23129;SDS011;11734;51.046;13.778;2023-05-07T01:02:06;13.67;;;9.53;;
23129;SDS011;11734;51.046;13.778;2023-05-07T01:04:34;12.80;;;8.97;;
23129;SDS011;11734;51.046;13.778;2023-05-07T01:07:01;12.93;;;9.30;;
23129;SDS011;11734;51.046;13.778;2023-05-07T01:09:29;11.70;;;8.53;;
23129;SDS011;11734;51.046;13.778;2023-05-07T01:11:56;12.83;;;9.57;;
23129;SDS011;11734;51.046;13.778;2023-05-07T01:14:24;12.07;;;9.10;;
23129;SDS011;11734;51.046;13.778;2023-05-07T01:16:52;10.87;;;8.37;;
23129;SDS011;11734;51.046;13.778;2023-05-07T01:19:22;12.23;;;8.57;;
23129;SDS011;11734;51.046;13.778;2023-05-07T01:21:50;11.80;;;8.67;;
23129;SDS011;11734;51.046;13.778;2023-05-07T01:24:20;12.27;;;8.00;;
23129;SDS011;11734;51.046;13.778;2023-05-07T01:26:47;10.60;;;8.00;;
23129;SDS011;11734;51.046;13.778;2023-05-07T01:29:16;10.50;;;7.97;;
23129;SDS011;11734;51.046;13.778;2023-05-07T01:31:45;13.80;;;9.00;;
23129;SDS011;11734;51.046;13.778;2023-05-07T01:34:13;11.90;;;9.03;;
23129;SDS011;11734;51.046;13.778;2023-05-07T01:36:41;10.57;;;8.17;;
23129;SDS011;11734;51.046;13.778;2023-05-07T01:39:09;11.43;;;8.73;;
23129;SDS011;11734;51.046;13.778;2023-05-07T01:41:37;11.90;;;8.13;;
23129;SDS011;11734;51.046;13.778;2023-05-07T01:44:04;11.20;;;8.57;;
23129;SDS011;11734;51.046;13.778;2023-05-07T01:46:32;12.97;;;8.87;;
23129;SDS011;11734;51.046;13.778;2023-05-07T01:49:00;12.67;;;8.50;;
23129;SDS011;11734;51.046;13.778;2023-05-07T01:51:27;11.77;;;8.47;;
23129;SDS011;11734;51.046;13.778;2023-05-07T01:53:55;10.53;;;8.63;;
23129;SDS011;11734;51.046;13.778;2023-05-07T01:56:22;12.03;;;8.13;;
23129;SDS011;11734;51.046;13.778;2023-05-07T01:58:49;13.13;;;8.83;;
23129;SDS011;11734;51.046;13.778;2023-05-07T02:01:18;12.40;;;8.43;;
23129;SDS011;11734;51.046;13.778;2023-05-07T02:03:46;13.03;;;8.47;;
23129;SDS011;11734;51.046;13.778;2023-05-07T02:06:20;11.63;;;8.80;;
23129;SDS011;11734;51.046;13.778;2023-05-07T02:08:47;10.33;;;8.23;;
23129;SDS011;11734;51.046;13.778;2023-05-07T02:11:15;11.00;;;8.53;;
23129;SDS011;11734;51.046;13.778;2023-05-07T02:13:42;11.77;;;8.23;;
23129;SDS011;11734;51.046;13.778;2023-05-07T02:16:10;11.03;;;8.60;;
23129;SDS011;11734;51.046;13.778;2023-05-07T02:18:38;12.03;;;8.63;;
23129;SDS011;11734;51.046;13.778;2023-05-07T02:21:05;12.13;;;9.63;;
23129;SDS011;11734;51.046;13.778;2023-05-07T02:23:33;11.03;;;9.17;;
23129;SDS011;11734;51.046;13.778;2023-05-07T02:26:00;11.23;;;8.60;;
23129;SDS011;11734;51.046;13.778;2023-05-07T02:28:28;10.40;;;7.90;;
23129;SDS011;11734;51.046;13.778;2023-05-07T02:31:03;11.67;;;7.90;;
23129;SDS011;11734;51.046;13.778;2023-05-07T02:33:31;9.90;;;7.60;;
23129;SDS011;11734;51.046;13.778;2023-05-07T02:36:05;11.07;;;8.40;;
23129;SDS011;11734;51.046;13.778;2023-05-07T02:38:34;9.80;;;7.97;;
23129;SDS011;11734;51.046;13.778;2023-05-07T02:41:02;9.10;;;7.60;;
23129;SDS011;11734;51.046;13.778;2023-05-07T02:43:30;8.87;;;6.93;;
23129;SDS011;11734;51.046;13.778;2023-05-07T02:46:04;7.03;;;6.33;;
23129;SDS011;11734;51.046;13.778;2023-05-07T02:48:34;9.37;;;7.13;;
23129;SDS011;11734;51.046;13.778;2023-05-07T02:51:01;8.00;;;6.43;;
23129;SDS011;11734;51.046;13.778;2023-05-07T02:53:29;7.60;;;6.33;;
23129;SDS011;11734;51.046;13.778;2023-05-07T02:55:57;7.73;;;6.60;;
23129;SDS011;11734;51.046;13.778;2023-05-07T02:58:24;7.67;;;6.20;;
23129;SDS011;11734;51.046;13.778;2023-05-07T03:00:52;9.03;;;5.87;;
23129;SDS011;11734;51.046;13.778;2023-05-07T03:03:37;7.97;;;5.67;;
23129;SDS011;11734;51.046;13.778;2023-05-07T03:06:05;9.43;;;6.57;;
23129;SDS011;11734;51.046;13.778;2023-05-07T03:08:33;7.70;;;5.60;;
23129;SDS011;11734;51.046;13.778;2023-05-07T03:11:00;8.57;;;5.80;;
23129;SDS011;11734;51.046;13.778;2023-05-07T03:13:28;6.10;;;5.50;;
23129;SDS011;11734;51.046;13.778;2023-05-07T03:15:55;7.63;;;5.67;;
23129;SDS011;11734;51.046;13.778;2023-05-07T03:18:23;8.23;;;6.23;;
23129;SDS011;11734;51.046;13.778;2023-05-07T03:20:51;8.30;;;6.03;;
23129;SDS011;11734;51.046;13.778;2023-05-07T03:23:18;7.97;;;5.97;;
23129;SDS011;11734;51.046;13.778;2023-05-07T03:25:49;7.67;;;5.40;;
23129;SDS011;11734;51.046;13.778;2023-05-07T03:28:17;9.03;;;7.00;;
23129;SDS011;11734;51.046;13.778;2023-05-07T03:30:55;9.47;;;6.80;;
23129;SDS011;11734;51.046;13.778;2023-05-07T03:33:23;7.67;;;6.23;;
23129;SDS011;11734;51.046;13.778;2023-05-07T03:35:50;8.63;;;6.50;;
23129;SDS011;11734;51.046;13.778;2023-05-07T03:38:23;9.30;;;6.77;;
23129;SDS011;11734;51.046;13.778;2023-05-07T03:40:50;8.80;;;6.73;;
23129;SDS011;11734;51.046;13.778;2023-05-07T03:43:17;8.87;;;6.87;;
23129;SDS011;11734;51.046;13.778;2023-05-07T03:45:50;9.03;;;6.63;;
23129;SDS011;11734;51.046;13.778;2023-05-07T03:48:21;9.33;;;6.37;;
23129;SDS011;11734;51.046;13.778;2023-05-07T03:50:51;9.50;;;6.30;;
23129;SDS011;11734;51.046;13.778;2023-05-07T03:53:20;8.60;;;6.30;;
23129;SDS011;11734;51.046;13.778;2023-05-07T03:55:47;8.80;;;6.47;;
23129;SDS011;11734;51.046;13.778;2023-05-07T03:58:15;10.37;;;7.00;;
23129;SDS011;11734;51.046;13.778;2023-05-07T04:00:43;11.17;;;7.50;;
23129;SDS011;11734;51.046;13.778;2023-05-07T04:03:18;11.53;;;7.70;;
23129;SDS011;11734;51.046;13.778;2023-05-07T04:05:45;10.43;;;7.67;;
23129;SDS011;11734;51.046;13.778;2023-05-07T04:08:13;12.17;;;8.13;;
23129;SDS011;11734;51.046;13.778;2023-05-07T04:10:45;11.57;;;7.90;;
23129;SDS011;11734;51.046;13.778;2023-05-07T04:13:12;13.27;;;7.70;;
23129;SDS011;11734;51.046;13.778;2023-05-07T04:15:41;11.00;;;7.83;;
23129;SDS011;11734;51.046;13.778;2023-05-07T04:18:11;11.83;;;7.90;;
23129;SDS011;11734;51.046;13.778;2023-05-07T04:20:40;12.20;;;8.10;;
23129;SDS011;11734;51.046;13.778;2023-05-07T04:23:10;10.87;;;7.73;;
23129;SDS011;11734;51.046;13.778;2023-05-07T04:25:39;11.63;;;7.47;;
23129;SDS011;11734;51.046;13.778;2023-05-07T04:28:12;10.90;;;7.23;;
23129;SDS011;11734;51.046;13.778;2023-05-07T04:30:40;11.23;;;7.47;;
23129;SDS011;11734;51.046;13.778;2023-05-07T04:33:09;11.20;;;7.43;;
23129;SDS011;11734;51.046;13.778;2023-05-07T04:35:39;12.57;;;8.20;;
23129;SDS011;11734;51.046;13.778;2023-05-07T04:38:07;9.73;;;6.97;;
23129;SDS011;11734;51.046;13.778;2023-05-07T04:40:35;10.43;;;7.63;;
23129;SDS011;11734;51.046;13.778;2023-05-07T04:43:03;10.87;;;7.47;;
23129;SDS011;11734;51.046;13.778;2023-05-07T04:45:36;12.10;;;7.70;;
23129;SDS011;11734;51.046;13.778;2023-05-07T04:48:06;11.20;;;7.50;;
23129;SDS011;11734;51.046;13.778;2023-05-07T04:50:33;10.43;;;7.80;;
23129;SDS011;11734;51.046;13.778;2023-05-07T04:53:02;11.07;;;8.20;;
23129;SDS011;11734;51.046;13.778;2023-05-07T04:55:30;10.13;;;7.40;;
23129;SDS011;11734;51.046;13.778;2023-05-07T04:57:57;10.10;;;7.53;;
23129;SDS011;11734;51.046;13.778;2023-05-07T05:00:24;12.20;;;7.80;;
23129;SDS011;11734;51.046;13.778;2023-05-07T05:02:55;11.17;;;7.93;;
23129;SDS011;11734;51.046;13.778;2023-05-07T05:05:22;11.03;;;7.47;;
23129;SDS011;11734;51.046;13.778;2023-05-07T05:07:52;11.40;;;7.63;;
23129;SDS011;11734;51.046;13.778;2023-05-07T05:10:19;11.07;;;7.57;;
23129;SDS011;11734;51.046;13.778;2023-05-07T05:12:50;10.73;;;7.20;;
23129;SDS011;11734;51.046;13.778;2023-05-07T05:15:17;10.57;;;7.60;;
23129;SDS011;11734;51.046;13.778;2023-05-07T05:17:44;11.23;;;7.20;;
23129;SDS011;11734;51.046;13.778;2023-05-07T05:20:12;10.63;;;7.30;;
23129;SDS011;11734;51.046;13.778;2023-05-07T05:22:43;10.03;;;7.10;;
23129;SDS011;11734;51.046;13.778;2023-05-07T05:25:12;11.90;;;8.57;;
23129;SDS011;11734;51.046;13.778;2023-05-07T05:27:39;11.73;;;7.63;;
23129;SDS011;11734;51.046;13.778;2023-05-07T05:30:07;11.93;;;7.80;;
23129;SDS011;11734;51.046;13.778;2023-05-07T05:32:36;10.47;;;7.07;;
23129;SDS011;11734;51.046;13.778;2023-05-07T05:35:04;11.07;;;7.63;;
23129;SDS011;11734;51.046;13.778;2023-05-07T05:37:32;11.90;;;7.73;;
23129;SDS011;11734;51.046;13.778;2023-05-07T05:40:02;10.70;;;7.07;;
23129;SDS011;11734;51.046;13.778;2023-05-07T05:42:30;7.67;;;6.60;;
23129;SDS011;11734;51.046;13.778;2023-05-07T05:44:57;10.43;;;7.47;;
23129;SDS011;11734;51.046;13.778;2023-05-07T05:47:26;10.63;;;6.63;;
23129;SDS011;11734;51.046;13.778;2023-05-07T05:49:54;8.77;;;6.20;;
23129;SDS011;11734;51.046;13.778;2023-05-07T05:52:22;10.27;;;7.10;;
23129;SDS011;11734;51.046;13.778;2023-05-07T05:54:50;7.10;;;6.17;;
23129;SDS011;11734;51.046;13.778;2023-05-07T05:57:18;8.60;;;6.50;;
23129;SDS011;11734;51.046;13.778;2023-05-07T05:59:46;7.17;;;5.83;;
23129;SDS011;11734;51.046;13.778;2023-05-07T06:02:13;8.53;;;5.93;;
23129;SDS011;11734;51.046;13.778;2023-05-07T06:04:41;7.37;;;5.13;;
23129;SDS011;11734;51.046;13.778;2023-05-07T06:07:11;6.33;;;4.70;;
23129;SDS011;11734;51.046;13.778;2023-05-07T06:09:39;7.73;;;5.03;;
23129;SDS011;11734;51.046;13.778;2023-05-07T06:12:06;5.60;;;4.20;;
23129;SDS011;11734;51.046;13.778;2023-05-07T06:14:35;7.77;;;5.03;;
23129;SDS011;11734;51.046;13.778;2023-05-07T06:17:02;7.83;;;5.10;;
23129;SDS011;11734;51.046;13.778;2023-05-07T06:19:29;6.97;;;4.87;;
23129;SDS011;11734;51.046;13.778;2023-05-07T06:21:58;7.13;;;4.67;;
23129;SDS011;11734;51.046;13.778;2023-05-07T06:24:29;8.47;;;4.97;;
23129;SDS011;11734;51.046;13.778;2023-05-07T06:26:56;5.57;;;4.67;;
23129;SDS011;11734;51.046;13.778;2023-05-07T06:29:26;6.37;;;4.80;;
23129;SDS011;11734;51.046;13.778;2023-05-07T06:31:53;7.00;;;5.10;;
23129;SDS011;11734;51.046;13.778;2023-05-07T06:34:21;5.57;;;4.40;;
23129;SDS011;11734;51.046;13.778;2023-05-07T06:36:49;6.27;;;4.53;;
23129;SDS011;11734;51.046;13.778;2023-05-07T06:39:27;5.60;;;4.50;;
23129;SDS011;11734;51.046;13.778;2023-05-07T06:41:54;5.63;;;4.77;;
23129;SDS011;11734;51.046;13.778;2023-05-07T06:44:25;5.70;;;4.57;;
23129;SDS011;11734;51.046;13.778;2023-05-07T06:47:11;5.27;;;4.77;;
23129;SDS011;11734;51.046;13.778;2023-05-07T06:49:43;7.03;;;5.53;;
23129;SDS011;11734;51.046;13.778;2023-05-07T06:52:14;8.20;;;5.83;;
23129;SDS011;11734;51.046;13.778;2023-05-07T06:54:41;7.00;;;6.07;;
23129;SDS011;11734;51.046;13.778;2023-05-07T06:57:09;7.50;;;5.47;;
23129;SDS011;11734;51.046;13.778;2023-05-07T06:59:37;6.07;;;5.13;;
23129;SDS011;11734;51.046;13.778;2023-05-07T07:02:04;6.60;;;5.33;;
23129;SDS011;11734;51.046;13.778;2023-05-07T07:04:32;6.97;;;5.43;;
23129;SDS011;11734;51.046;13.778;2023-05-07T07:07:04;8.73;;;6.27;;
23129;SDS011;11734;51.046;13.778;2023-05-07T07:09:32;8.93;;;6.00;;
23129;SDS011;11734;51.046;13.778;2023-05-07T07:12:01;7.13;;;5.87;;
23129;SDS011;11734;51.046;13.778;2023-05-07T07:14:29;6.67;;;5.20;;
23129;SDS011;11734;51.046;13.778;2023-05-07T07:16:57;6.40;;;5.13;;
23129;SDS011;11734;51.046;13.778;2023-05-07T07:19:25;6.70;;;5.27;;
23129;SDS011;11734;51.046;13.778;2023-05-07T07:21:54;4.70;;;4.30;;
23129;SDS011;11734;51.046;13.778;2023-05-07T07:24:21;4.37;;;3.77;;
23129;SDS011;11734;51.046;13.778;2023-05-07T07:26:53;4.50;;;3.63;;
23129;SDS011;11734;51.046;13.778;2023-05-07T07:29:22;5.23;;;4.20;;
23129;SDS011;11734;51.046;13.778;2023-05-07T07:31:53;5.00;;;4.20;;
23129;SDS011;11734;51.046;13.778;2023-05-07T07:34:20;4.67;;;3.80;;
23129;SDS011;11734;51.046;13.778;2023-05-07T07:36:48;3.87;;;3.47;;
23129;SDS011;11734;51.046;13.778;2023-05-07T07:39:17;4.93;;;3.70;;
23129;SDS011;11734;51.046;13.778;2023-05-07T07:41:47;4.43;;;4.03;;
23129;SDS011;11734;51.046;13.778;2023-05-07T07:44:16;4.47;;;3.60;;
23129;SDS011;11734;51.046;13.778;2023-05-07T07:46:48;3.97;;;3.47;;
23129;SDS011;11734;51.046;13.778;2023-05-07T07:49:17;4.20;;;3.80;;
23129;SDS011;11734;51.046;13.778;2023-05-07T07:51:44;4.70;;;3.83;;
23129;SDS011;11734;51.046;13.778;2023-05-07T07:54:12;4.40;;;4.00;;
23129;SDS011;11734;51.046;13.778;2023-05-07T07:56:40;4.90;;;3.80;;
23129;SDS011;11734;51.046;13.778;2023-05-07T07:59:09;4.23;;;3.83;;
23129;SDS011;11734;51.046;13.778;2023-05-07T08:01:39;4.67;;;4.07;;
23129;SDS011;11734;51.046;13.778;2023-05-07T08:04:06;4.57;;;4.13;;
23129;SDS011;11734;51.046;13.778;2023-05-07T08:06:37;6.40;;;4.33;;
23129;SDS011;11734;51.046;13.778;2023-05-07T08:09:07;4.13;;;3.67;;
23129;SDS011;11734;51.046;13.778;2023-05-07T08:11:37;3.47;;;3.17;;
23129;SDS011;11734;51.046;13.778;2023-05-07T08:14:05;4.43;;;3.67;;
23129;SDS011;11734;51.046;13.778;2023-05-07T08:16:32;4.43;;;3.20;;
23129;SDS011;11734;51.046;13.778;2023-05-07T08:19:01;3.50;;;3.20;;
23129;SDS011;11734;51.046;13.778;2023-05-07T08:21:28;3.70;;;3.40;;
23129;SDS011;11734;51.046;13.778;2023-05-07T08:24:00;3.70;;;3.30;;
23129;SDS011;11734;51.046;13.778;2023-05-07T08:26:28;3.73;;;3.43;;
23129;SDS011;11734;51.046;13.778;2023-05-07T08:28:55;4.00;;;3.13;;
23129;SDS011;11734;51.046;13.778;2023-05-07T08:31:23;4.27;;;3.87;;
23129;SDS011;11734;51.046;13.778;2023-05-07T08:33:50;3.77;;;3.43;;
23129;SDS011;11734;51.046;13.778;2023-05-07T08:36:18;4.60;;;3.77;;
23129;SDS011;11734;51.046;13.778;2023-05-07T08:38:45;3.63;;;3.33;;
23129;SDS011;11734;51.046;13.778;2023-05-07T08:41:13;3.83;;;3.43;;
23129;SDS011;11734;51.046;13.778;2023-05-07T08:43:42;4.00;;;3.70;;
23129;SDS011;11734;51.046;13.778;2023-05-07T08:46:16;3.87;;;3.50;;
23129;SDS011;11734;51.046;13.778;2023-05-07T08:48:45;3.83;;;3.53;;
23129;SDS011;11734;51.046;13.778;2023-05-07T08:51:15;4.13;;;3.73;;
23129;SDS011;11734;51.046;13.778;2023-05-07T08:53:44;5.07;;;4.30;;
23129;SDS011;11734;51.046;13.778;2023-05-07T08:56:16;5.67;;;4.47;;
23129;SDS011;11734;51.046;13.778;2023-05-07T08:58:47;5.90;;;4.53;;
23129;SDS011;11734;51.046;13.778;2023-05-07T09:01:16;5.23;;;4.60;;
23129;SDS011;11734;51.046;13.778;2023-05-07T09:03:47;5.17;;;4.43;;
23129;SDS011;11734;51.046;13.778;2023-05-07T09:06:15;5.53;;;4.93;;
23129;SDS011;11734;51.046;13.778;2023-05-07T09:08:48;5.00;;;4.47;;
23129;SDS011;11734;51.046;13.778;2023-05-07T09:11:19;5.10;;;4.30;;
23129;SDS011;11734;51.046;13.778;2023-05-07T09:13:48;6.07;;;4.97;;
23129;SDS011;11734;51.046;13.778;2023-05-07T09:16:16;4.87;;;4.37;;
23129;SDS011;11734;51.046;13.778;2023-05-07T09:18:45;5.00;;;4.50;;
23129;SDS011;11734;51.046;13.778;2023-05-07T09:21:14;5.77;;;5.17;;
23129;SDS011;11734;51.046;13.778;2023-05-07T09:23:42;6.17;;;4.77;;
23129;SDS011;11734;51.046;13.778;2023-05-07T09:26:11;5.63;;;4.90;;
23129;SDS011;11734;51.046;13.778;2023-05-07T09:28:40;5.93;;;4.70;;
23129;SDS011;11734;51.046;13.778;2023-05-07T09:31:11;5.27;;;4.60;;
23129;SDS011;11734;51.046;13.778;2023-05-07T09:33:39;5.20;;;4.70;;
23129;SDS011;11734;51.046;13.778;2023-05-07T09:36:09;6.20;;;4.77;;
23129;SDS011;11734;51.046;13.778;2023-05-07T09:38:39;6.73;;;4.83;;
23129;SDS011;11734;51.046;13.778;2023-05-07T09:41:08;6.33;;;4.70;;
23129;SDS011;11734;51.046;13.778;2023-05-07T09:43:42;6.30;;;5.33;;
23129;SDS011;11734;51.046;13.778;2023-05-07T09:46:13;5.57;;;4.70;;
23129;SDS011;11734;51.046;13.778;2023-05-07T09:48:46;5.03;;;4.47;;
23129;SDS011;11734;51.046;13.778;2023-05-07T09:53:50;6.07;;;4.93;;
23129;SDS011;11734;51.046;13.778;2023-05-07T09:56:17;5.70;;;4.60;;
23129;SDS011;11734;51.046;13.778;2023-05-07T09:58:46;6.07;;;5.03;;
23129;SDS011;11734;51.046;13.778;2023-05-07T10:01:15;6.97;;;5.53;;
23129;SDS011;11734;51.046;13.778;2023-05-07T10:03:45;5.73;;;5.13;;
23129;SDS011;11734;51.046;13.778;2023-05-07T10:06:13;7.33;;;5.80;;
23129;SDS011;11734;51.046;13.778;2023-05-07T10:08:42;6.73;;;5.70;;
23129;SDS011;11734;51.046;13.778;2023-05-07T10:11:10;6.07;;;5.07;;
23129;SDS011;11734;51.046;13.778;2023-05-07T10:13:37;7.10;;;5.33;;
23129;SDS011;11734;51.046;13.778;2023-05-07T10:16:07;7.33;;;5.87;;
23129;SDS011;11734;51.046;13.778;2023-05-07T10:18:41;6.17;;;5.50;;
23129;SDS011;11734;51.046;13.778;2023-05-07T10:21:18;5.67;;;5.07;;
23129;SDS011;11734;51.046;13.778;2023-05-07T10:23:49;6.00;;;5.13;;
23129;SDS011;11734;51.046;13.778;2023-05-07T10:26:18;6.17;;;4.93;;
23129;SDS011;11734;51.046;13.778;2023-05-07T10:28:49;5.93;;;4.90;;
23129;SDS011;11734;51.046;13.778;2023-05-07T10:34:26;6.83;;;5.10;;
23129;SDS011;11734;51.046;13.778;2023-05-07T10:36:55;5.57;;;4.73;;
23129;SDS011;11734;51.046;13.778;2023-05-07T10:39:23;6.83;;;5.13;;
23129;SDS011;11734;51.046;13.778;2023-05-07T10:41:51;6.03;;;5.30;;
23129;SDS011;11734;51.046;13.778;2023-05-07T10:44:27;5.87;;;4.80;;
23129;SDS011;11734;51.046;13.778;2023-05-07T10:47:07;6.53;;;5.80;;
23129;SDS011;11734;51.046;13.778;2023-05-07T10:52:21;5.87;;;5.27;;
23129;SDS011;11734;51.046;13.778;2023-05-07T10:57:55;5.13;;;4.63;;
23129;SDS011;11734;51.046;13.778;2023-05-07T11:03:06;4.80;;;4.30;;
23129;SDS011;11734;51.046;13.778;2023-05-07T11:06:08;5.17;;;4.60;;
23129;SDS011;11734;51.046;13.778;2023-05-07T11:08:54;5.77;;;4.60;;
23129;SDS011;11734;51.046;13.778;2023-05-07T11:11:49;6.20;;;4.60;;
23129;SDS011;11734;51.046;13.778;2023-05-07T11:17:19;5.67;;;4.37;;
23129;SDS011;11734;51.046;13.778;2023-05-07T11:19:54;4.80;;;3.93;;
23129;SDS011;11734;51.046;13.778;2023-05-07T11:25:34;4.87;;;4.17;;
23129;SDS011;11734;51.046;13.778;2023-05-07T11:28:09;4.10;;;3.70;;
23129;SDS011;11734;51.046;13.778;2023-05-07T11:30:49;4.70;;;4.00;;
23129;SDS011;11734;51.046;13.778;2023-05-07T11:33:19;5.17;;;4.67;;
23129;SDS011;11734;51.046;13.778;2023-05-07T11:35:48;5.50;;;4.10;;
23129;SDS011;11734;51.046;13.778;2023-05-07T11:38:18;5.10;;;4.50;;
23129;SDS011;11734;51.046;13.778;2023-05-07T11:40:53;4.37;;;3.97;;
23129;SDS011;11734;51.046;13.778;2023-05-07T11:43:20;5.27;;;4.43;;
23129;SDS011;11734;51.046;13.778;2023-05-07T11:45:48;5.90;;;4.90;;
23129;SDS011;11734;51.046;13.778;2023-05-07T11:48:16;4.60;;;4.10;;
23129;SDS011;11734;51.046;13.778;2023-05-07T11:50:50;5.13;;;4.47;;
23129;SDS011;11734;51.046;13.778;2023-05-07T11:53:19;5.73;;;4.50;;
23129;SDS011;11734;51.046;13.778;2023-05-07T11:55:47;5.07;;;4.57;;
23129;SDS011;11734;51.046;13.778;2023-05-07T11:58:19;4.63;;;4.23;;
23129;SDS011;11734;51.046;13.778;2023-05-07T12:00:48;4.73;;;4.30;;
23129;SDS011;11734;51.046;13.778;2023-05-07T12:03:15;5.37;;;4.30;;
23129;SDS011;11734;51.046;13.778;2023-05-07T12:05:44;4.73;;;4.23;;
23129;SDS011;11734;51.046;13.778;2023-05-07T12:08:15;5.10;;;4.60;;
23129;SDS011;11734;51.046;13.778;2023-05-07T12:10:42;4.90;;;4.40;;
23129;SDS011;11734;51.046;13.778;2023-05-07T12:13:19;5.03;;;4.40;;
23129;SDS011;11734;51.046;13.778;2023-05-07T12:15:54;5.43;;;4.33;;
23129;SDS011;11734;51.046;13.778;2023-05-07T12:18:22;4.57;;;3.83;;
23129;SDS011;11734;51.046;13.778;2023-05-07T12:20:50;4.87;;;4.40;;
23129;SDS011;11734;51.046;13.778;2023-05-07T12:23:17;4.63;;;4.13;;
23129;SDS011;11734;51.046;13.778;2023-05-07T12:25:45;4.50;;;4.10;;
23129;SDS011;11734;51.046;13.778;2023-05-07T12:28:15;4.37;;;3.93;;
23129;SDS011;11734;51.046;13.778;2023-05-07T12:30:43;4.93;;;3.63;;
23129;SDS011;11734;51.046;13.778;2023-05-07T12:33:11;4.50;;;4.10;;
23129;SDS011;11734;51.046;13.778;2023-05-07T12:35:41;4.40;;;4.00;;
23129;SDS011;11734;51.046;13.778;2023-05-07T12:38:09;4.73;;;4.27;;
23129;SDS011;11734;51.046;13.778;2023-05-07T12:40:37;4.43;;;3.93;;
23129;SDS011;11734;51.046;13.778;2023-05-07T12:43:05;5.43;;;4.40;;
23129;SDS011;11734;51.046;13.778;2023-05-07T12:45:36;5.17;;;4.50;;
23129;SDS011;11734;51.046;13.778;2023-05-07T12:48:04;4.40;;;4.00;;
23129;SDS011;11734;51.046;13.778;2023-05-07T12:50:31;4.87;;;4.23;;
23129;SDS011;11734;51.046;13.778;2023-05-07T12:52:59;4.93;;;4.00;;
23129;SDS011;11734;51.046;13.778;2023-05-07T12:55:26;4.53;;;4.03;;
23129;SDS011;11734;51.046;13.778;2023-05-07T12:58:00;4.80;;;4.30;;
23129;SDS011;11734;51.046;13.778;2023-05-07T13:00:33;4.77;;;4.27;;
23129;SDS011;11734;51.046;13.778;2023-05-07T13:03:00;6.10;;;4.27;;
23129;SDS011;11734;51.046;13.778;2023-05-07T13:05:27;4.27;;;3.90;;
23129;SDS011;11734;51.046;13.778;2023-05-07T13:07:55;4.63;;;4.13;;
23129;SDS011;11734;51.046;13.778;2023-05-07T13:10:22;3.97;;;3.57;;
23129;SDS011;11734;51.046;13.778;2023-05-07T13:12:50;4.50;;;4.10;;
23129;SDS011;11734;51.046;13.778;2023-05-07T13:15:17;5.57;;;3.87;;
23129;SDS011;11734;51.046;13.778;2023-05-07T13:17:46;3.50;;;3.13;;
23129;SDS011;11734;51.046;13.778;2023-05-07T13:20:14;4.17;;;3.77;;
23129;SDS011;11734;51.046;13.778;2023-05-07T13:22:41;3.77;;;3.47;;
23129;SDS011;11734;51.046;13.778;2023-05-07T13:25:09;4.23;;;3.83;;
23129;SDS011;11734;51.046;13.778;2023-05-07T13:27:36;4.13;;;3.73;;
23129;SDS011;11734;51.046;13.778;2023-05-07T13:30:04;4.43;;;4.03;;
23129;SDS011;11734;51.046;13.778;2023-05-07T13:32:31;4.23;;;3.83;;
23129;SDS011;11734;51.046;13.778;2023-05-07T13:34:59;3.90;;;3.60;;
23129;SDS011;11734;51.046;13.778;2023-05-07T13:37:26;4.23;;;3.83;;
23129;SDS011;11734;51.046;13.778;2023-05-07T13:39:54;4.67;;;4.27;;
23129;SDS011;11734;51.046;13.778;2023-05-07T13:42:21;3.90;;;3.60;;
23129;SDS011;11734;51.046;13.778;2023-05-07T13:44:48;3.70;;;3.40;;
23129;SDS011;11734;51.046;13.778;2023-05-07T13:47:16;4.13;;;3.73;;
23129;SDS011;11734;51.046;13.778;2023-05-07T13:49:43;4.07;;;3.77;;
23129;SDS011;11734;51.046;13.778;2023-05-07T13:52:10;4.20;;;3.80;;
23129;SDS011;11734;51.046;13.778;2023-05-07T13:54:38;4.50;;;4.10;;
23129;SDS011;11734;51.046;13.778;2023-05-07T13:57:05;4.77;;;3.77;;
23129;SDS011;11734;51.046;13.778;2023-05-07T13:59:33;3.97;;;3.60;;
23129;SDS011;11734;51.046;13.778;2023-05-07T14:02:00;3.53;;;3.23;;
23129;SDS011;11734;51.046;13.778;2023-05-07T14:04:27;3.93;;;3.60;;
23129;SDS011;11734;51.046;13.778;2023-05-07T14:06:54;4.23;;;3.77;;
23129;SDS011;11734;51.046;13.778;2023-05-07T14:09:22;3.97;;;3.57;;
23129;SDS011;11734;51.046;13.778;2023-05-07T14:11:49;3.50;;;3.20;;
23129;SDS011;11734;51.046;13.778;2023-05-07T14:14:17;3.70;;;3.27;;
23129;SDS011;11734;51.046;13.778;2023-05-07T14:16:45;3.63;;;3.33;;
23129;SDS011;11734;51.046;13.778;2023-05-07T14:19:15;3.57;;;3.27;;
23129;SDS011;11734;51.046;13.778;2023-05-07T14:21:43;3.10;;;2.80;;
23129;SDS011;11734;51.046;13.778;2023-05-07T14:24:10;3.40;;;3.10;;
23129;SDS011;11734;51.046;13.778;2023-05-07T14:26:37;3.37;;;3.17;;
23129;SDS011;11734;51.046;13.778;2023-05-07T14:29:04;3.20;;;2.90;;
23129;SDS011;11734;51.046;13.778;2023-05-07T14:31:32;2.87;;;2.67;;
23129;SDS011;11734;51.046;13.778;2023-05-07T14:33:59;3.20;;;2.90;;
23129;SDS011;11734;51.046;13.778;2023-05-07T14:36:27;3.07;;;2.80;;
23129;SDS011;11734;51.046;13.778;2023-05-07T14:38:56;2.70;;;2.50;;
23129;SDS011;11734;51.046;13.778;2023-05-07T14:41:25;3.07;;;2.73;;
23129;SDS011;11734;51.046;13.778;2023-05-07T14:43:52;3.37;;;3.00;;
23129;SDS011;11734;51.046;13.778;2023-05-07T14:46:20;3.20;;;2.90;;
23129;SDS011;11734;51.046;13.778;2023-05-07T14:48:47;3.70;;;3.40;;
23129;SDS011;11734;51.046;13.778;2023-05-07T14:51:15;3.90;;;3.60;;
23129;SDS011;11734;51.046;13.778;2023-05-07T14:53:42;3.47;;;3.17;;
23129;SDS011;11734;51.046;13.778;2023-05-07T14:56:10;3.83;;;3.47;;
23129;SDS011;11734;51.046;13.778;2023-05-07T14:58:37;3.67;;;3.37;;
23129;SDS011;11734;51.046;13.778;2023-05-07T15:01:04;3.83;;;3.50;;